sensor_id;sensor_type;location;lat;lon;timestamp;P1;durP1;ratioP1;P2;durP2;ratioP2
17890;SDS011;9071;48.220;14.480;2023-06-10T00:04:03;19.90;;;15.70;;
17890;SDS011;9071;48.220;14.480;2023-06-10T00:09:05;26.33;;;18.27;;
17890;SDS011;9071;48.220;14.480;2023-06-10T00:14:11;22.33;;;16.70;;
17890;SDS011;9071;48.220;14.480;2023-06-10T00:19:14;22.37;;;16.67;;
17890;SDS011;9071;48.220;14.480;2023-06-10T00:24:16;21.33;;;16.67;;
17890;SDS011;9071;48.220;14.480;2023-06-10T00:29:20;22.43;;;18.33;;
17890;SDS011;9071;48.220;14.480;2023-06-10T00:34:22;27.90;;;21.13;;
17890;SDS011;9071;48.220;14.480;2023-06-10T00:39:24;27.67;;;20.27;;
17890;SDS011;9071;48.220;14.480;2023-06-10T00:44:27;23.47;;;18.27;;
17890;SDS011;9071;48.220;14.480;2023-06-10T00:49:29;24.40;;;17.60;;
17890;SDS011;9071;48.220;14.480;2023-06-10T00:54:31;25.17;;;17.70;;
17890;SDS011;9071;48.220;14.480;2023-06-10T00:59:35;25.37;;;18.73;;
17890;SDS011;9071;48.220;14.480;2023-06-10T01:04:37;26.97;;;19.43;;
17890;SDS011;9071;48.220;14.480;2023-06-10T01:09:42;29.43;;;20.93;;
17890;SDS011;9071;48.220;14.480;2023-06-10T01:14:52;29.33;;;21.53;;
17890;SDS011;9071;48.220;14.480;2023-06-10T01:19:55;25.10;;;18.60;;
17890;SDS011;9071;48.220;14.480;2023-06-10T01:24:59;29.67;;;21.10;;
17890;SDS011;9071;48.220;14.480;2023-06-10T01:30:04;26.57;;;20.17;;
17890;SDS011;9071;48.220;14.480;2023-06-10T01:35:11;26.57;;;19.33;;
17890;SDS011;9071;48.220;14.480;2023-06-10T01:40:16;29.80;;;20.90;;
17890;SDS011;9071;48.220;14.480;2023-06-10T01:45:18;26.00;;;19.30;;
17890;SDS011;9071;48.220;14.480;2023-06-10T01:50:20;25.87;;;18.57;;
17890;SDS011;9071;48.220;14.480;2023-06-10T01:55:24;26.23;;;18.57;;
17890;SDS011;9071;48.220;14.480;2023-06-10T02:00:26;25.43;;;18.47;;
17890;SDS011;9071;48.220;14.480;2023-06-10T02:05:28;23.53;;;17.37;;
17890;SDS011;9071;48.220;14.480;2023-06-10T02:10:31;24.17;;;17.57;;
17890;SDS011;9071;48.220;14.480;2023-06-10T02:15:34;21.93;;;16.37;;
17890;SDS011;9071;48.220;14.480;2023-06-10T02:20:36;23.53;;;16.10;;
17890;SDS011;9071;48.220;14.480;2023-06-10T02:25:39;23.03;;;15.03;;
17890;SDS011;9071;48.220;14.480;2023-06-10T02:30:41;22.00;;;16.20;;
17890;SDS011;9071;48.220;14.480;2023-06-10T02:35:44;19.90;;;14.87;;
17890;SDS011;9071;48.220;14.480;2023-06-10T02:40:47;17.13;;;13.63;;
17890;SDS011;9071;48.220;14.480;2023-06-10T02:45:49;21.90;;;15.03;;
17890;SDS011;9071;48.220;14.480;2023-06-10T02:50:51;24.43;;;16.67;;
17890;SDS011;9071;48.220;14.480;2023-06-10T02:55:55;20.37;;;15.87;;
17890;SDS011;9071;48.220;14.480;2023-06-10T03:00:57;26.57;;;18.00;;
17890;SDS011;9071;48.220;14.480;2023-06-10T03:05:59;25.00;;;17.73;;
17890;SDS011;9071;48.220;14.480;2023-06-10T03:11:04;24.33;;;17.10;;
17890;SDS011;9071;48.220;14.480;2023-06-10T03:16:06;27.87;;;18.47;;
17890;SDS011;9071;48.220;14.480;2023-06-10T03:21:08;24.90;;;17.50;;
17890;SDS011;9071;48.220;14.480;2023-06-10T03:26:12;23.77;;;17.03;;
17890;SDS011;9071;48.220;14.480;2023-06-10T03:31:15;24.10;;;17.63;;
17890;SDS011;9071;48.220;14.480;2023-06-10T03:36:18;23.70;;;16.03;;
17890;SDS011;9071;48.220;14.480;2023-06-10T03:41:21;28.30;;;18.00;;
17890;SDS011;9071;48.220;14.480;2023-06-10T03:46:23;23.43;;;16.73;;
17890;SDS011;9071;48.220;14.480;2023-06-10T03:51:25;23.77;;;16.67;;
17890;SDS011;9071;48.220;14.480;2023-06-10T03:56:29;27.83;;;18.10;;
17890;SDS011;9071;48.220;14.480;2023-06-10T04:01:31;24.57;;;17.00;;
17890;SDS011;9071;48.220;14.480;2023-06-10T04:06:33;22.73;;;17.20;;
17890;SDS011;9071;48.220;14.480;2023-06-10T04:11:37;21.37;;;16.20;;
17890;SDS011;9071;48.220;14.480;2023-06-10T04:16:39;17.90;;;15.17;;
17890;SDS011;9071;48.220;14.480;2023-06-10T04:21:42;18.23;;;15.07;;
17890;SDS011;9071;48.220;14.480;2023-06-10T04:26:45;16.98;;;13.25;;
17890;SDS011;9071;48.220;14.480;2023-06-10T04:31:48;17.05;;;13.50;;
17890;SDS011;9071;48.220;14.480;2023-06-10T04:36:50;16.58;;;13.50;;
17890;SDS011;9071;48.220;14.480;2023-06-10T04:41:54;16.30;;;13.10;;
17890;SDS011;9071;48.220;14.480;2023-06-10T04:46:56;17.30;;;13.90;;
17890;SDS011;9071;48.220;14.480;2023-06-10T04:51:58;17.70;;;13.43;;
17890;SDS011;9071;48.220;14.480;2023-06-10T04:57:02;17.83;;;12.93;;
17890;SDS011;9071;48.220;14.480;2023-06-10T05:02:04;16.27;;;12.77;;
17890;SDS011;9071;48.220;14.480;2023-06-10T05:07:06;17.73;;;13.77;;
17890;SDS011;9071;48.220;14.480;2023-06-10T05:12:10;16.75;;;13.23;;
17890;SDS011;9071;48.220;14.480;2023-06-10T05:17:12;16.52;;;13.90;;
17890;SDS011;9071;48.220;14.480;2023-06-10T05:22:14;18.25;;;14.00;;
17890;SDS011;9071;48.220;14.480;2023-06-10T05:27:19;20.23;;;14.63;;
17890;SDS011;9071;48.220;14.480;2023-06-10T05:32:22;19.70;;;13.65;;
17890;SDS011;9071;48.220;14.480;2023-06-10T05:37:24;16.83;;;12.55;;
17890;SDS011;9071;48.220;14.480;2023-06-10T05:42:28;16.45;;;12.40;;
17890;SDS011;9071;48.220;14.480;2023-06-10T05:47:30;14.75;;;11.45;;
17890;SDS011;9071;48.220;14.480;2023-06-10T05:52:32;16.15;;;12.65;;
17890;SDS011;9071;48.220;14.480;2023-06-10T05:57:35;15.45;;;13.07;;
17890;SDS011;9071;48.220;14.480;2023-06-10T06:02:37;20.77;;;13.25;;
17890;SDS011;9071;48.220;14.480;2023-06-10T06:07:39;15.90;;;13.07;;
17890;SDS011;9071;48.220;14.480;2023-06-10T06:12:43;13.50;;;11.20;;
17890;SDS011;9071;48.220;14.480;2023-06-10T06:17:45;23.27;;;11.32;;
17890;SDS011;9071;48.220;14.480;2023-06-10T06:22:47;15.63;;;10.68;;
17890;SDS011;9071;48.220;14.480;2023-06-10T06:27:51;12.88;;;10.40;;
17890;SDS011;9071;48.220;14.480;2023-06-10T06:32:53;14.43;;;10.38;;
17890;SDS011;9071;48.220;14.480;2023-06-10T06:37:55;13.48;;;10.07;;
17890;SDS011;9071;48.220;14.480;2023-06-10T06:43:00;10.68;;;7.97;;
17890;SDS011;9071;48.220;14.480;2023-06-10T06:48:02;9.43;;;8.25;;
17890;SDS011;9071;48.220;14.480;2023-06-10T06:53:06;10.50;;;8.35;;
17890;SDS011;9071;48.220;14.480;2023-06-10T06:58:09;11.73;;;7.50;;
17890;SDS011;9071;48.220;14.480;2023-06-10T07:03:11;11.07;;;7.80;;
17890;SDS011;9071;48.220;14.480;2023-06-10T07:08:13;9.35;;;7.07;;
17890;SDS011;9071;48.220;14.480;2023-06-10T07:13:17;9.45;;;7.47;;
17890;SDS011;9071;48.220;14.480;2023-06-10T07:18:19;10.15;;;6.88;;
17890;SDS011;9071;48.220;14.480;2023-06-10T07:23:21;9.25;;;7.13;;
17890;SDS011;9071;48.220;14.480;2023-06-10T07:28:24;9.48;;;7.30;;
17890;SDS011;9071;48.220;14.480;2023-06-10T07:33:26;9.70;;;7.00;;
17890;SDS011;9071;48.220;14.480;2023-06-10T07:38:29;9.00;;;7.10;;
17890;SDS011;9071;48.220;14.480;2023-06-10T07:43:32;10.00;;;8.02;;
17890;SDS011;9071;48.220;14.480;2023-06-10T07:48:34;9.18;;;7.72;;
17890;SDS011;9071;48.220;14.480;2023-06-10T07:53:36;8.40;;;7.50;;
17890;SDS011;9071;48.220;14.480;2023-06-10T07:58:40;9.32;;;7.50;;
17890;SDS011;9071;48.220;14.480;2023-06-10T08:03:42;10.00;;;7.18;;
17890;SDS011;9071;48.220;14.480;2023-06-10T08:08:44;8.27;;;7.20;;
17890;SDS011;9071;48.220;14.480;2023-06-10T08:13:48;10.63;;;7.70;;
17890;SDS011;9071;48.220;14.480;2023-06-10T08:18:50;7.88;;;7.07;;
17890;SDS011;9071;48.220;14.480;2023-06-10T08:23:53;8.02;;;6.90;;
17890;SDS011;9071;48.220;14.480;2023-06-10T08:28:57;7.50;;;6.80;;
17890;SDS011;9071;48.220;14.480;2023-06-10T08:33:59;8.05;;;6.97;;
17890;SDS011;9071;48.220;14.480;2023-06-10T08:39:01;8.35;;;7.47;;
17890;SDS011;9071;48.220;14.480;2023-06-10T08:44:08;9.68;;;7.03;;
17890;SDS011;9071;48.220;14.480;2023-06-10T08:49:16;8.02;;;6.90;;
17890;SDS011;9071;48.220;14.480;2023-06-10T08:54:21;7.97;;;7.18;;
17890;SDS011;9071;48.220;14.480;2023-06-10T08:59:28;8.82;;;7.47;;
17890;SDS011;9071;48.220;14.480;2023-06-10T09:04:31;9.23;;;6.95;;
17890;SDS011;9071;48.220;14.480;2023-06-10T09:09:33;7.88;;;7.07;;
17890;SDS011;9071;48.220;14.480;2023-06-10T09:14:38;8.35;;;7.30;;
17890;SDS011;9071;48.220;14.480;2023-06-10T09:19:40;9.27;;;8.07;;
17890;SDS011;9071;48.220;14.480;2023-06-10T09:24:43;8.75;;;7.90;;
17890;SDS011;9071;48.220;14.480;2023-06-10T09:29:51;8.80;;;7.88;;
17890;SDS011;9071;48.220;14.480;2023-06-10T09:34:53;8.48;;;7.57;;
17890;SDS011;9071;48.220;14.480;2023-06-10T09:40:00;10.00;;;8.10;;
17890;SDS011;9071;48.220;14.480;2023-06-10T09:45:06;8.00;;;7.20;;
17890;SDS011;9071;48.220;14.480;2023-06-10T09:50:09;8.65;;;7.25;;
17890;SDS011;9071;48.220;14.480;2023-06-10T09:55:11;7.68;;;6.63;;
17890;SDS011;9071;48.220;14.480;2023-06-10T10:00:15;7.47;;;6.72;;
17890;SDS011;9071;48.220;14.480;2023-06-10T10:05:18;6.53;;;5.90;;
17890;SDS011;9071;48.220;14.480;2023-06-10T10:10:21;7.63;;;6.70;;
17890;SDS011;9071;48.220;14.480;2023-06-10T10:15:27;6.93;;;6.30;;
17890;SDS011;9071;48.220;14.480;2023-06-10T10:20:33;7.70;;;6.28;;
17890;SDS011;9071;48.220;14.480;2023-06-10T10:25:38;7.43;;;6.68;;
17890;SDS011;9071;48.220;14.480;2023-06-10T10:30:46;7.95;;;7.15;;
17890;SDS011;9071;48.220;14.480;2023-06-10T10:35:51;8.88;;;6.25;;
17890;SDS011;9071;48.220;14.480;2023-06-10T10:40:55;6.85;;;6.15;;
17890;SDS011;9071;48.220;14.480;2023-06-10T10:46:01;7.40;;;6.68;;
17890;SDS011;9071;48.220;14.480;2023-06-10T10:51:09;8.05;;;6.63;;
17890;SDS011;9071;48.220;14.480;2023-06-10T10:56:12;7.43;;;6.82;;
17890;SDS011;9071;48.220;14.480;2023-06-10T11:01:17;8.95;;;8.05;;
17890;SDS011;9071;48.220;14.480;2023-06-10T11:06:19;10.23;;;9.18;;
17890;SDS011;9071;48.220;14.480;2023-06-10T11:11:22;8.88;;;7.97;;
17890;SDS011;9071;48.220;14.480;2023-06-10T11:16:27;9.63;;;8.60;;
17890;SDS011;9071;48.220;14.480;2023-06-10T11:21:30;8.52;;;7.72;;
17890;SDS011;9071;48.220;14.480;2023-06-10T11:26:32;8.98;;;8.00;;
17890;SDS011;9071;48.220;14.480;2023-06-10T11:31:45;8.77;;;7.88;;
17890;SDS011;9071;48.220;14.480;2023-06-10T11:36:51;10.48;;;8.52;;
17890;SDS011;9071;48.220;14.480;2023-06-10T11:41:53;6.65;;;6.03;;
17890;SDS011;9071;48.220;14.480;2023-06-10T11:46:58;8.38;;;7.55;;
17890;SDS011;9071;48.220;14.480;2023-06-10T11:52:00;9.13;;;8.27;;
17890;SDS011;9071;48.220;14.480;2023-06-10T11:57:02;9.55;;;8.57;;
17890;SDS011;9071;48.220;14.480;2023-06-10T12:02:06;10.45;;;7.82;;
17890;SDS011;9071;48.220;14.480;2023-06-10T12:07:17;8.23;;;7.43;;
17890;SDS011;9071;48.220;14.480;2023-06-10T12:12:19;7.20;;;6.40;;
17890;SDS011;9071;48.220;14.480;2023-06-10T12:17:23;7.75;;;6.95;;
17890;SDS011;9071;48.220;14.480;2023-06-10T12:22:37;9.55;;;8.50;;
17890;SDS011;9071;48.220;14.480;2023-06-10T12:27:40;18.02;;;10.20;;
17890;SDS011;9071;48.220;14.480;2023-06-10T12:32:53;15.82;;;12.32;;
17890;SDS011;9071;48.220;14.480;2023-06-10T12:37:55;18.40;;;12.27;;
17890;SDS011;9071;48.220;14.480;2023-06-10T12:42:59;19.63;;;13.48;;
17890;SDS011;9071;48.220;14.480;2023-06-10T12:48:07;19.05;;;14.02;;
17890;SDS011;9071;48.220;14.480;2023-06-10T12:53:10;16.98;;;13.70;;
17890;SDS011;9071;48.220;14.480;2023-06-10T12:58:12;18.00;;;13.82;;
17890;SDS011;9071;48.220;14.480;2023-06-10T13:03:16;18.20;;;13.88;;
17890;SDS011;9071;48.220;14.480;2023-06-10T13:08:18;20.17;;;14.32;;
17890;SDS011;9071;48.220;14.480;2023-06-10T13:13:20;15.10;;;12.10;;
17890;SDS011;9071;48.220;14.480;2023-06-10T13:18:23;13.63;;;11.30;;
17890;SDS011;9071;48.220;14.480;2023-06-10T13:23:26;11.13;;;9.27;;
17890;SDS011;9071;48.220;14.480;2023-06-10T13:28:28;10.00;;;9.00;;
17890;SDS011;9071;48.220;14.480;2023-06-10T13:33:32;11.50;;;9.13;;
17890;SDS011;9071;48.220;14.480;2023-06-10T13:38:34;10.98;;;9.80;;
17890;SDS011;9071;48.220;14.480;2023-06-10T13:43:36;12.90;;;9.18;;
17890;SDS011;9071;48.220;14.480;2023-06-10T13:48:39;13.02;;;10.18;;
17890;SDS011;9071;48.220;14.480;2023-06-10T13:53:42;10.80;;;9.35;;
17890;SDS011;9071;48.220;14.480;2023-06-10T13:58:46;11.80;;;9.48;;
17890;SDS011;9071;48.220;14.480;2023-06-10T14:03:49;11.98;;;9.85;;
17890;SDS011;9071;48.220;14.480;2023-06-10T14:08:52;11.35;;;10.15;;
17890;SDS011;9071;48.220;14.480;2023-06-10T14:13:54;13.20;;;10.80;;
17890;SDS011;9071;48.220;14.480;2023-06-10T14:18:59;12.35;;;10.05;;
17890;SDS011;9071;48.220;14.480;2023-06-10T14:24:01;11.57;;;10.38;;
17890;SDS011;9071;48.220;14.480;2023-06-10T14:29:03;12.73;;;11.30;;
17890;SDS011;9071;48.220;14.480;2023-06-10T14:34:06;11.48;;;10.27;;
17890;SDS011;9071;48.220;14.480;2023-06-10T14:39:09;11.10;;;9.85;;
17890;SDS011;9071;48.220;14.480;2023-06-10T14:44:11;10.00;;;8.70;;
17890;SDS011;9071;48.220;14.480;2023-06-10T14:49:14;10.52;;;9.23;;
17890;SDS011;9071;48.220;14.480;2023-06-10T14:54:16;10.45;;;8.98;;
17890;SDS011;9071;48.220;14.480;2023-06-10T14:59:18;11.23;;;8.85;;
17890;SDS011;9071;48.220;14.480;2023-06-10T15:04:22;10.55;;;8.85;;
17890;SDS011;9071;48.220;14.480;2023-06-10T15:09:23;9.90;;;8.90;;
17890;SDS011;9071;48.220;14.480;2023-06-10T15:14:25;11.68;;;10.18;;
17890;SDS011;9071;48.220;14.480;2023-06-10T15:19:29;17.50;;;13.18;;
17890;SDS011;9071;48.220;14.480;2023-06-10T15:24:31;13.85;;;12.23;;
17890;SDS011;9071;48.220;14.480;2023-06-10T15:29:33;14.15;;;11.63;;
17890;SDS011;9071;48.220;14.480;2023-06-10T15:34:36;13.75;;;11.80;;
17890;SDS011;9071;48.220;14.480;2023-06-10T15:39:38;12.68;;;10.43;;
17890;SDS011;9071;48.220;14.480;2023-06-10T15:44:40;13.38;;;11.88;;
17890;SDS011;9071;48.220;14.480;2023-06-10T15:49:44;13.48;;;10.23;;
17890;SDS011;9071;48.220;14.480;2023-06-10T15:54:46;13.77;;;10.68;;
17890;SDS011;9071;48.220;14.480;2023-06-10T15:59:48;13.90;;;10.77;;
17890;SDS011;9071;48.220;14.480;2023-06-10T16:04:51;12.70;;;11.30;;
17890;SDS011;9071;48.220;14.480;2023-06-10T16:09:53;13.75;;;10.27;;
17890;SDS011;9071;48.220;14.480;2023-06-10T16:14:56;11.88;;;9.88;;
17890;SDS011;9071;48.220;14.480;2023-06-10T16:19:59;11.70;;;10.00;;
17890;SDS011;9071;48.220;14.480;2023-06-10T16:25:01;11.60;;;10.50;;
17890;SDS011;9071;48.220;14.480;2023-06-10T16:30:04;12.18;;;10.88;;
17890;SDS011;9071;48.220;14.480;2023-06-10T16:35:08;12.98;;;11.48;;
17890;SDS011;9071;48.220;14.480;2023-06-10T16:40:10;14.30;;;11.70;;
17890;SDS011;9071;48.220;14.480;2023-06-10T16:45:13;12.95;;;11.55;;
17890;SDS011;9071;48.220;14.480;2023-06-10T16:50:16;13.80;;;11.65;;
17890;SDS011;9071;48.220;14.480;2023-06-10T16:55:18;14.95;;;10.25;;
17890;SDS011;9071;48.220;14.480;2023-06-10T17:00:20;12.75;;;9.85;;
17890;SDS011;9071;48.220;14.480;2023-06-10T17:05:24;14.40;;;9.80;;
17890;SDS011;9071;48.220;14.480;2023-06-10T17:10:26;11.32;;;9.80;;
17890;SDS011;9071;48.220;14.480;2023-06-10T17:15:28;10.45;;;7.80;;
17890;SDS011;9071;48.220;14.480;2023-06-10T17:20:31;9.80;;;7.13;;
17890;SDS011;9071;48.220;14.480;2023-06-10T17:25:33;10.48;;;7.78;;
17890;SDS011;9071;48.220;14.480;2023-06-10T17:30:36;9.25;;;7.95;;
17890;SDS011;9071;48.220;14.480;2023-06-10T17:35:40;7.90;;;7.10;;
17890;SDS011;9071;48.220;14.480;2023-06-10T17:40:42;8.43;;;7.63;;
17890;SDS011;9071;48.220;14.480;2023-06-10T17:45:44;10.02;;;8.05;;
17890;SDS011;9071;48.220;14.480;2023-06-10T17:50:47;8.50;;;7.40;;
17890;SDS011;9071;48.220;14.480;2023-06-10T17:55:49;11.27;;;7.90;;
17890;SDS011;9071;48.220;14.480;2023-06-10T18:00:53;10.45;;;8.02;;
17890;SDS011;9071;48.220;14.480;2023-06-10T18:05:56;9.98;;;8.70;;
17890;SDS011;9071;48.220;14.480;2023-06-10T18:10:58;8.85;;;7.68;;
17890;SDS011;9071;48.220;14.480;2023-06-10T18:16:01;8.88;;;7.97;;
17890;SDS011;9071;48.220;14.480;2023-06-10T18:21:06;9.60;;;8.38;;
17890;SDS011;9071;48.220;14.480;2023-06-10T18:26:08;9.93;;;8.60;;
17890;SDS011;9071;48.220;14.480;2023-06-10T18:31:11;12.23;;;9.02;;
17890;SDS011;9071;48.220;14.480;2023-06-10T18:36:14;10.80;;;8.65;;
17890;SDS011;9071;48.220;14.480;2023-06-10T18:41:16;9.30;;;8.40;;
17890;SDS011;9071;48.220;14.480;2023-06-10T18:46:18;12.70;;;9.65;;
17890;SDS011;9071;48.220;14.480;2023-06-10T18:51:22;11.18;;;10.05;;
17890;SDS011;9071;48.220;14.480;2023-06-10T18:56:24;10.90;;;9.52;;
17890;SDS011;9071;48.220;14.480;2023-06-10T19:01:26;13.30;;;11.55;;
17890;SDS011;9071;48.220;14.480;2023-06-10T19:06:30;12.35;;;11.05;;
17890;SDS011;9071;48.220;14.480;2023-06-10T19:11:32;12.85;;;11.30;;
17890;SDS011;9071;48.220;14.480;2023-06-10T19:16:35;14.40;;;12.07;;
17890;SDS011;9071;48.220;14.480;2023-06-10T19:21:38;12.65;;;11.35;;
17890;SDS011;9071;48.220;14.480;2023-06-10T19:26:40;15.85;;;11.63;;
17890;SDS011;9071;48.220;14.480;2023-06-10T19:31:42;14.63;;;12.00;;
17890;SDS011;9071;48.220;14.480;2023-06-10T19:36:45;14.45;;;11.45;;
17890;SDS011;9071;48.220;14.480;2023-06-10T19:41:47;12.60;;;11.30;;
17890;SDS011;9071;48.220;14.480;2023-06-10T19:46:50;12.15;;;10.90;;
17890;SDS011;9071;48.220;14.480;2023-06-10T19:51:53;14.18;;;12.60;;
17890;SDS011;9071;48.220;14.480;2023-06-10T19:56:55;12.40;;;11.02;;
17890;SDS011;9071;48.220;14.480;2023-06-10T20:01:57;14.25;;;12.77;;
17890;SDS011;9071;48.220;14.480;2023-06-10T20:07:00;13.68;;;11.80;;
17890;SDS011;9071;48.220;14.480;2023-06-10T20:12:03;14.00;;;12.30;;
17890;SDS011;9071;48.220;14.480;2023-06-10T20:17:05;18.00;;;14.05;;
17890;SDS011;9071;48.220;14.480;2023-06-10T20:22:09;13.77;;;12.35;;
17890;SDS011;9071;48.220;14.480;2023-06-10T20:27:11;22.02;;;19.40;;
17890;SDS011;9071;48.220;14.480;2023-06-10T20:32:13;19.90;;;17.80;;
17890;SDS011;9071;48.220;14.480;2023-06-10T20:37:16;17.27;;;14.95;;
17890;SDS011;9071;48.220;14.480;2023-06-10T20:42:18;18.42;;;16.27;;
17890;SDS011;9071;48.220;14.480;2023-06-10T20:47:20;18.00;;;16.02;;
17890;SDS011;9071;48.220;14.480;2023-06-10T20:52:24;23.08;;;17.15;;
17890;SDS011;9071;48.220;14.480;2023-06-10T20:57:26;18.90;;;16.10;;
17890;SDS011;9071;48.220;14.480;2023-06-10T21:02:28;23.23;;;19.27;;
17890;SDS011;9071;48.220;14.480;2023-06-10T21:07:31;25.90;;;19.05;;
17890;SDS011;9071;48.220;14.480;2023-06-10T21:12:33;28.10;;;23.45;;
17890;SDS011;9071;48.220;14.480;2023-06-10T21:17:35;45.13;;;34.72;;
17890;SDS011;9071;48.220;14.480;2023-06-10T21:22:39;32.67;;;25.70;;
17890;SDS011;9071;48.220;14.480;2023-06-10T21:27:41;30.80;;;23.63;;
17890;SDS011;9071;48.220;14.480;2023-06-10T21:32:43;28.27;;;24.70;;
17890;SDS011;9071;48.220;14.480;2023-06-10T21:37:48;27.70;;;23.60;;
17890;SDS011;9071;48.220;14.480;2023-06-10T21:42:50;28.35;;;22.50;;
17890;SDS011;9071;48.220;14.480;2023-06-10T21:47:52;27.42;;;23.02;;
17890;SDS011;9071;48.220;14.480;2023-06-10T21:52:56;27.35;;;22.70;;
17890;SDS011;9071;48.220;14.480;2023-06-10T21:57:58;24.60;;;21.23;;
17890;SDS011;9071;48.220;14.480;2023-06-10T22:03:00;27.92;;;23.65;;
17890;SDS011;9071;48.220;14.480;2023-06-10T22:08:03;35.92;;;26.08;;
17890;SDS011;9071;48.220;14.480;2023-06-10T22:13:05;32.55;;;27.08;;
17890;SDS011;9071;48.220;14.480;2023-06-10T22:18:08;33.03;;;26.02;;
17890;SDS011;9071;48.220;14.480;2023-06-10T22:23:17;32.05;;;25.30;;
17890;SDS011;9071;48.220;14.480;2023-06-10T22:28:19;33.63;;;25.00;;
17890;SDS011;9071;48.220;14.480;2023-06-10T22:33:21;25.40;;;21.50;;
17890;SDS011;9071;48.220;14.480;2023-06-10T22:38:25;31.00;;;23.13;;
17890;SDS011;9071;48.220;14.480;2023-06-10T22:43:27;26.35;;;21.35;;
17890;SDS011;9071;48.220;14.480;2023-06-10T22:48:29;28.60;;;22.95;;
17890;SDS011;9071;48.220;14.480;2023-06-10T22:53:33;32.05;;;24.95;;
17890;SDS011;9071;48.220;14.480;2023-06-10T22:58:35;31.38;;;23.38;;
17890;SDS011;9071;48.220;14.480;2023-06-10T23:03:37;31.77;;;24.48;;
17890;SDS011;9071;48.220;14.480;2023-06-10T23:08:40;30.15;;;25.13;;
17890;SDS011;9071;48.220;14.480;2023-06-10T23:13:42;34.88;;;26.42;;
17890;SDS011;9071;48.220;14.480;2023-06-10T23:18:44;32.67;;;25.73;;
17890;SDS011;9071;48.220;14.480;2023-06-10T23:23:48;34.88;;;26.70;;
17890;SDS011;9071;48.220;14.480;2023-06-10T23:28:51;36.92;;;25.83;;
17890;SDS011;9071;48.220;14.480;2023-06-10T23:33:53;39.15;;;29.23;;
17890;SDS011;9071;48.220;14.480;2023-06-10T23:38:59;38.15;;;27.20;;
17890;SDS011;9071;48.220;14.480;2023-06-10T23:44:01;42.13;;;28.58;;
17890;SDS011;9071;48.220;14.480;2023-06-10T23:49:03;37.58;;;27.63;;
17890;SDS011;9071;48.220;14.480;2023-06-10T23:54:08;37.65;;;26.52;;
17890;SDS011;9071;48.220;14.480;2023-06-10T23:59:12;35.20;;;25.52;;
